sensor_id;sensor_type;location;lat;lon;timestamp;temperature;humidity
55331;DHT22;58851;42.984;20.336;2023-04-24T00:00:16;230.70;6502.40
55331;DHT22;58851;42.984;20.336;2023-04-24T00:02:44;230.70;6502.40
55331;DHT22;58851;42.984;20.336;2023-04-24T00:05:17;230.70;6502.40
55331;DHT22;58851;42.984;20.336;2023-04-24T00:07:44;230.60;6502.40
55331;DHT22;58851;42.984;20.336;2023-04-24T00:10:11;230.60;6502.40
55331;DHT22;58851;42.984;20.336;2023-04-24T00:12:37;230.60;6502.40
55331;DHT22;58851;42.984;20.336;2023-04-24T00:15:03;230.60;6502.40
55331;DHT22;58851;42.984;20.336;2023-04-24T00:17:29;230.60;6502.40
55331;DHT22;58851;42.984;20.336;2023-04-24T00:19:56;230.60;6502.40
55331;DHT22;58851;42.984;20.336;2023-04-24T00:22:27;230.40;6502.40
55331;DHT22;58851;42.984;20.336;2023-04-24T00:24:54;205.70;6502.40
55331;DHT22;58851;42.984;20.336;2023-04-24T00:27:20;205.70;6502.40
55331;DHT22;58851;42.984;20.336;2023-04-24T00:29:47;205.70;6502.40
55331;DHT22;58851;42.984;20.336;2023-04-24T00:32:13;205.60;6502.40
55331;DHT22;58851;42.984;20.336;2023-04-24T00:34:39;205.60;6502.40
55331;DHT22;58851;42.984;20.336;2023-04-24T00:37:05;205.50;6502.40
55331;DHT22;58851;42.984;20.336;2023-04-24T00:39:31;205.50;6502.40
55331;DHT22;58851;42.984;20.336;2023-04-24T00:41:57;205.50;6502.40
55331;DHT22;58851;42.984;20.336;2023-04-24T00:44:23;205.50;6502.40
55331;DHT22;58851;42.984;20.336;2023-04-24T00:46:50;205.50;6502.40
55331;DHT22;58851;42.984;20.336;2023-04-24T00:49:22;205.50;6502.40
55331;DHT22;58851;42.984;20.336;2023-04-24T00:51:49;205.50;6502.40
55331;DHT22;58851;42.984;20.336;2023-04-24T00:54:17;205.40;6502.40
55331;DHT22;58851;42.984;20.336;2023-04-24T00:56:44;205.40;6502.40
55331;DHT22;58851;42.984;20.336;2023-04-24T00:59:11;205.50;6502.40
55331;DHT22;58851;42.984;20.336;2023-04-24T01:01:37;205.40;6502.40
55331;DHT22;58851;42.984;20.336;2023-04-24T01:04:07;205.40;6502.40
55331;DHT22;58851;42.984;20.336;2023-04-24T01:06:37;205.40;6502.40
55331;DHT22;58851;42.984;20.336;2023-04-24T01:09:03;205.40;6502.40
55331;DHT22;58851;42.984;20.336;2023-04-24T01:11:30;205.40;6502.40
55331;DHT22;58851;42.984;20.336;2023-04-24T01:13:56;205.40;6502.40
55331;DHT22;58851;42.984;20.336;2023-04-24T01:16:22;205.40;6502.40
55331;DHT22;58851;42.984;20.336;2023-04-24T01:18:48;205.30;6502.40
55331;DHT22;58851;42.984;20.336;2023-04-24T01:21:15;205.30;6502.40
55331;DHT22;58851;42.984;20.336;2023-04-24T01:23:45;205.20;6502.40
55331;DHT22;58851;42.984;20.336;2023-04-24T01:26:12;205.20;6502.40
55331;DHT22;58851;42.984;20.336;2023-04-24T01:28:38;205.20;6502.40
55331;DHT22;58851;42.984;20.336;2023-04-24T01:31:04;205.20;6502.40
55331;DHT22;58851;42.984;20.336;2023-04-24T01:33:30;205.20;6502.40
55331;DHT22;58851;42.984;20.336;2023-04-24T01:35:56;205.20;6502.40
55331;DHT22;58851;42.984;20.336;2023-04-24T01:38:23;205.20;6502.40
55331;DHT22;58851;42.984;20.336;2023-04-24T01:40:50;205.20;6502.40
55331;DHT22;58851;42.984;20.336;2023-04-24T01:43:16;205.20;6502.40
55331;DHT22;58851;42.984;20.336;2023-04-24T01:45:42;205.10;6502.40
55331;DHT22;58851;42.984;20.336;2023-04-24T01:48:08;205.10;6502.40
55331;DHT22;58851;42.984;20.336;2023-04-24T01:50:34;205.10;6502.40
55331;DHT22;58851;42.984;20.336;2023-04-24T01:53:00;205.00;6502.40
55331;DHT22;58851;42.984;20.336;2023-04-24T01:55:26;205.00;6502.40
55331;DHT22;58851;42.984;20.336;2023-04-24T01:57:55;205.00;6502.40
55331;DHT22;58851;42.984;20.336;2023-04-24T02:00:21;205.00;6502.40
55331;DHT22;58851;42.984;20.336;2023-04-24T02:02:47;205.00;6502.40
55331;DHT22;58851;42.984;20.336;2023-04-24T02:05:13;204.90;6502.40
55331;DHT22;58851;42.984;20.336;2023-04-24T02:07:38;204.90;6502.40
55331;DHT22;58851;42.984;20.336;2023-04-24T02:10:05;204.90;6502.40
55331;DHT22;58851;42.984;20.336;2023-04-24T02:12:31;204.90;6502.40
55331;DHT22;58851;42.984;20.336;2023-04-24T02:14:57;204.80;6502.40
55331;DHT22;58851;42.984;20.336;2023-04-24T02:17:23;204.80;6502.40
55331;DHT22;58851;42.984;20.336;2023-04-24T02:19:49;180.10;6502.40
55331;DHT22;58851;42.984;20.336;2023-04-24T02:22:14;204.80;6502.40
55331;DHT22;58851;42.984;20.336;2023-04-24T02:24:40;204.80;6502.40
55331;DHT22;58851;42.984;20.336;2023-04-24T02:27:07;180.10;6502.40
55331;DHT22;58851;42.984;20.336;2023-04-24T02:29:32;180.10;6502.40
55331;DHT22;58851;42.984;20.336;2023-04-24T02:31:58;180.00;6502.40
55331;DHT22;58851;42.984;20.336;2023-04-24T02:34:24;180.00;6502.40
55331;DHT22;58851;42.984;20.336;2023-04-24T02:36:50;179.90;6502.40
55331;DHT22;58851;42.984;20.336;2023-04-24T02:39:16;179.80;6502.40
55331;DHT22;58851;42.984;20.336;2023-04-24T02:41:42;179.80;6502.40
55331;DHT22;58851;42.984;20.336;2023-04-24T02:44:09;179.80;6502.40
55331;DHT22;58851;42.984;20.336;2023-04-24T02:46:35;179.80;6502.40
55331;DHT22;58851;42.984;20.336;2023-04-24T02:49:01;179.80;6502.40
55331;DHT22;58851;42.984;20.336;2023-04-24T02:51:26;179.70;6502.40
55331;DHT22;58851;42.984;20.336;2023-04-24T02:53:52;179.80;6502.40
55331;DHT22;58851;42.984;20.336;2023-04-24T02:56:18;179.80;6502.40
55331;DHT22;58851;42.984;20.336;2023-04-24T02:58:44;179.70;6502.40
55331;DHT22;58851;42.984;20.336;2023-04-24T03:01:10;179.70;6502.40
55331;DHT22;58851;42.984;20.336;2023-04-24T03:03:37;179.70;6502.40
55331;DHT22;58851;42.984;20.336;2023-04-24T03:06:03;179.70;6502.40
55331;DHT22;58851;42.984;20.336;2023-04-24T03:08:31;179.60;6502.40
55331;DHT22;58851;42.984;20.336;2023-04-24T03:10:57;179.60;6502.40
55331;DHT22;58851;42.984;20.336;2023-04-24T03:13:23;179.60;6502.40
55331;DHT22;58851;42.984;20.336;2023-04-24T03:15:49;179.60;6502.40
55331;DHT22;58851;42.984;20.336;2023-04-24T03:18:15;179.60;6502.40
55331;DHT22;58851;42.984;20.336;2023-04-24T03:20:42;179.50;6502.40
55331;DHT22;58851;42.984;20.336;2023-04-24T03:23:07;179.50;6502.40
55331;DHT22;58851;42.984;20.336;2023-04-24T03:25:33;179.40;6502.40
55331;DHT22;58851;42.984;20.336;2023-04-24T03:27:59;179.40;6502.40
55331;DHT22;58851;42.984;20.336;2023-04-24T03:30:25;179.40;6502.40
55331;DHT22;58851;42.984;20.336;2023-04-24T03:32:51;179.40;6502.40
55331;DHT22;58851;42.984;20.336;2023-04-24T03:35:16;179.40;6502.40
55331;DHT22;58851;42.984;20.336;2023-04-24T03:37:42;179.30;6502.40
55331;DHT22;58851;42.984;20.336;2023-04-24T03:40:08;179.30;6502.40
55331;DHT22;58851;42.984;20.336;2023-04-24T03:42:34;179.20;6502.40
55331;DHT22;58851;42.984;20.336;2023-04-24T03:45:00;179.20;6502.40
55331;DHT22;58851;42.984;20.336;2023-04-24T03:47:26;154.50;6502.40
55331;DHT22;58851;42.984;20.336;2023-04-24T03:49:52;154.50;6502.40
55331;DHT22;58851;42.984;20.336;2023-04-24T03:52:19;154.50;6502.40
55331;DHT22;58851;42.984;20.336;2023-04-24T03:54:44;154.50;6502.40
55331;DHT22;58851;42.984;20.336;2023-04-24T03:57:10;154.50;6502.40
55331;DHT22;58851;42.984;20.336;2023-04-24T03:59:36;179.20;6502.40
55331;DHT22;58851;42.984;20.336;2023-04-24T04:02:02;154.50;6502.40
55331;DHT22;58851;42.984;20.336;2023-04-24T04:04:28;154.50;6502.40
55331;DHT22;58851;42.984;20.336;2023-04-24T04:06:53;179.20;6502.40
55331;DHT22;58851;42.984;20.336;2023-04-24T04:09:19;154.50;6502.40
55331;DHT22;58851;42.984;20.336;2023-04-24T04:11:45;179.20;6502.40
55331;DHT22;58851;42.984;20.336;2023-04-24T04:14:11;179.20;6502.40
55331;DHT22;58851;42.984;20.336;2023-04-24T04:16:37;179.20;6502.40
55331;DHT22;58851;42.984;20.336;2023-04-24T04:19:02;179.20;6502.40
55331;DHT22;58851;42.984;20.336;2023-04-24T04:21:29;179.20;6502.40
55331;DHT22;58851;42.984;20.336;2023-04-24T04:23:56;179.30;6502.40
55331;DHT22;58851;42.984;20.336;2023-04-24T04:26:22;179.30;6502.40
55331;DHT22;58851;42.984;20.336;2023-04-24T04:28:53;179.40;6502.40
55331;DHT22;58851;42.984;20.336;2023-04-24T04:31:20;179.40;6502.40
55331;DHT22;58851;42.984;20.336;2023-04-24T04:33:46;179.50;6502.40
55331;DHT22;58851;42.984;20.336;2023-04-24T04:36:12;179.50;6502.40
55331;DHT22;58851;42.984;20.336;2023-04-24T04:38:38;179.60;6502.40
55331;DHT22;58851;42.984;20.336;2023-04-24T04:41:04;179.60;6502.40
55331;DHT22;58851;42.984;20.336;2023-04-24T04:43:29;179.60;6502.40
55331;DHT22;58851;42.984;20.336;2023-04-24T04:45:57;179.70;6502.40
55331;DHT22;58851;42.984;20.336;2023-04-24T04:48:23;179.70;6502.40
55331;DHT22;58851;42.984;20.336;2023-04-24T04:50:49;179.80;6502.40
55331;DHT22;58851;42.984;20.336;2023-04-24T04:53:15;179.90;6502.40
55331;DHT22;58851;42.984;20.336;2023-04-24T04:55:41;180.00;6502.40
55331;DHT22;58851;42.984;20.336;2023-04-24T04:58:07;180.10;6502.40
55331;DHT22;58851;42.984;20.336;2023-04-24T05:00:33;204.80;6502.40
55331;DHT22;58851;42.984;20.336;2023-04-24T05:03:01;205.00;6502.40
55331;DHT22;58851;42.984;20.336;2023-04-24T05:05:27;205.10;6502.40
55331;DHT22;58851;42.984;20.336;2023-04-24T05:07:54;205.20;6502.40
55331;DHT22;58851;42.984;20.336;2023-04-24T05:10:20;205.10;6502.40
55331;DHT22;58851;42.984;20.336;2023-04-24T05:12:45;205.30;6502.40
55331;DHT22;58851;42.984;20.336;2023-04-24T05:15:11;205.30;6502.40
55331;DHT22;58851;42.984;20.336;2023-04-24T05:17:37;205.40;6502.40
55331;DHT22;58851;42.984;20.336;2023-04-24T05:20:05;205.50;6502.40
55331;DHT22;58851;42.984;20.336;2023-04-24T05:22:32;205.60;6502.40
55331;DHT22;58851;42.984;20.336;2023-04-24T05:24:57;205.70;6502.40
55331;DHT22;58851;42.984;20.336;2023-04-24T05:27:24;230.40;6502.40
55331;DHT22;58851;42.984;20.336;2023-04-24T05:29:49;230.50;6502.40
55331;DHT22;58851;42.984;20.336;2023-04-24T05:32:15;230.60;6502.40
55331;DHT22;58851;42.984;20.336;2023-04-24T05:34:41;230.70;6502.40
55331;DHT22;58851;42.984;20.336;2023-04-24T05:37:07;230.70;6502.40
55331;DHT22;58851;42.984;20.336;2023-04-24T05:39:35;230.90;6502.40
55331;DHT22;58851;42.984;20.336;2023-04-24T05:42:02;231.00;6502.40
55331;DHT22;58851;42.984;20.336;2023-04-24T05:44:30;231.20;6502.40
55331;DHT22;58851;42.984;20.336;2023-04-24T05:46:56;231.20;6502.40
55331;DHT22;58851;42.984;20.336;2023-04-24T05:49:22;256.00;6502.40
55331;DHT22;58851;42.984;20.336;2023-04-24T05:51:48;256.10;6502.40
55331;DHT22;58851;42.984;20.336;2023-04-24T05:54:14;256.20;6502.40
55331;DHT22;58851;42.984;20.336;2023-04-24T05:56:40;256.30;6502.40
55331;DHT22;58851;42.984;20.336;2023-04-24T05:59:06;256.50;6502.40
55331;DHT22;58851;42.984;20.336;2023-04-24T06:01:33;256.60;6502.40
55331;DHT22;58851;42.984;20.336;2023-04-24T06:03:58;256.60;6502.40
55331;DHT22;58851;42.984;20.336;2023-04-24T06:06:24;256.70;6502.40
55331;DHT22;58851;42.984;20.336;2023-04-24T06:08:51;256.80;6502.40
55331;DHT22;58851;42.984;20.336;2023-04-24T06:11:17;256.80;384.00
55331;DHT22;58851;42.984;20.336;2023-04-24T06:13:43;281.60;6528.00
55331;DHT22;58851;42.984;20.336;2023-04-24T06:16:09;281.70;6528.00
55331;DHT22;58851;42.984;20.336;2023-04-24T06:18:35;281.90;128.00
55331;DHT22;58851;42.984;20.336;2023-04-24T06:21:00;282.10;179.20
55331;DHT22;58851;42.984;20.336;2023-04-24T06:23:26;282.30;6528.00
55331;DHT22;58851;42.984;20.336;2023-04-24T06:25:52;282.50;153.60
55331;DHT22;58851;42.984;20.336;2023-04-24T06:28:18;307.30;128.00
55331;DHT22;58851;42.984;20.336;2023-04-24T06:30:44;307.50;128.00
55331;DHT22;58851;42.984;20.336;2023-04-24T06:33:10;307.20;128.00
55331;DHT22;58851;42.984;20.336;2023-04-24T06:35:36;307.40;128.00
55331;DHT22;58851;42.984;20.336;2023-04-24T06:38:03;307.50;128.00
55331;DHT22;58851;42.984;20.336;2023-04-24T06:40:29;307.70;128.00
55331;DHT22;58851;42.984;20.336;2023-04-24T06:42:55;307.80;128.00
55331;DHT22;58851;42.984;20.336;2023-04-24T06:45:23;307.90;128.00
55331;DHT22;58851;42.984;20.336;2023-04-24T06:47:49;307.90;128.00
55331;DHT22;58851;42.984;20.336;2023-04-24T06:50:15;332.80;128.00
55331;DHT22;58851;42.984;20.336;2023-04-24T06:52:41;333.00;128.00
55331;DHT22;58851;42.984;20.336;2023-04-24T06:55:08;333.30;128.00
55331;DHT22;58851;42.984;20.336;2023-04-24T06:57:34;333.60;128.00
55331;DHT22;58851;42.984;20.336;2023-04-24T06:59:59;358.40;128.00
55331;DHT22;58851;42.984;20.336;2023-04-24T07:02:25;358.60;128.00
55331;DHT22;58851;42.984;20.336;2023-04-24T07:04:51;358.70;128.00
55331;DHT22;58851;42.984;20.336;2023-04-24T07:07:18;358.80;128.00
55331;DHT22;58851;42.984;20.336;2023-04-24T07:09:44;358.90;128.00
55331;DHT22;58851;42.984;20.336;2023-04-24T07:12:11;359.00;128.00
55331;DHT22;58851;42.984;20.336;2023-04-24T07:14:37;359.10;128.00
55331;DHT22;58851;42.984;20.336;2023-04-24T07:17:04;359.20;128.00
55331;DHT22;58851;42.984;20.336;2023-04-24T07:19:30;384.00;128.00
55331;DHT22;58851;42.984;20.336;2023-04-24T07:21:56;384.20;128.00
55331;DHT22;58851;42.984;20.336;2023-04-24T07:24:27;384.70;128.00
55331;DHT22;58851;42.984;20.336;2023-04-24T07:26:53;409.60;128.00
55331;DHT22;58851;42.984;20.336;2023-04-24T07:29:19;409.80;128.00
55331;DHT22;58851;42.984;20.336;2023-04-24T07:31:46;409.80;128.00
55331;DHT22;58851;42.984;20.336;2023-04-24T07:34:12;410.10;128.00
55331;DHT22;58851;42.984;20.336;2023-04-24T07:36:38;410.20;128.00
55331;DHT22;58851;42.984;20.336;2023-04-24T07:39:04;410.40;128.00
55331;DHT22;58851;42.984;20.336;2023-04-24T07:41:31;435.20;128.00
55331;DHT22;58851;42.984;20.336;2023-04-24T07:43:57;435.40;128.00
55331;DHT22;58851;42.984;20.336;2023-04-24T07:46:23;435.50;128.00
55331;DHT22;58851;42.984;20.336;2023-04-24T07:48:50;435.50;128.00
55331;DHT22;58851;42.984;20.336;2023-04-24T07:51:16;435.70;128.00
55331;DHT22;58851;42.984;20.336;2023-04-24T07:53:43;435.60;128.00
55331;DHT22;58851;42.984;20.336;2023-04-24T07:56:09;435.80;128.00
55331;DHT22;58851;42.984;20.336;2023-04-24T07:58:35;435.50;128.00
55331;DHT22;58851;42.984;20.336;2023-04-24T08:01:01;435.70;128.00
55331;DHT22;58851;42.984;20.336;2023-04-24T08:03:27;435.80;128.00
55331;DHT22;58851;42.984;20.336;2023-04-24T08:05:52;435.80;128.00
55331;DHT22;58851;42.984;20.336;2023-04-24T08:08:21;435.90;128.00
55331;DHT22;58851;42.984;20.336;2023-04-24T08:10:47;435.90;128.00
55331;DHT22;58851;42.984;20.336;2023-04-24T08:13:13;435.90;128.00
55331;DHT22;58851;42.984;20.336;2023-04-24T08:15:39;435.90;128.00
55331;DHT22;58851;42.984;20.336;2023-04-24T08:18:05;436.00;128.00
55331;DHT22;58851;42.984;20.336;2023-04-24T08:20:31;460.80;128.00
55331;DHT22;58851;42.984;20.336;2023-04-24T08:22:57;460.80;128.00
55331;DHT22;58851;42.984;20.336;2023-04-24T08:25:23;461.00;128.00
55331;DHT22;58851;42.984;20.336;2023-04-24T08:27:50;461.30;128.00
55331;DHT22;58851;42.984;20.336;2023-04-24T08:30:17;461.50;128.00
55331;DHT22;58851;42.984;20.336;2023-04-24T08:32:43;486.40;128.00
55331;DHT22;58851;42.984;20.336;2023-04-24T08:35:09;486.60;128.00
55331;DHT22;58851;42.984;20.336;2023-04-24T08:37:35;486.60;128.00
55331;DHT22;58851;42.984;20.336;2023-04-24T08:40:06;461.70;128.00
55331;DHT22;58851;42.984;20.336;2023-04-24T08:42:33;461.70;128.00
55331;DHT22;58851;42.984;20.336;2023-04-24T08:44:59;461.40;128.00
55331;DHT22;58851;42.984;20.336;2023-04-24T08:47:26;461.50;128.00
55331;DHT22;58851;42.984;20.336;2023-04-24T08:49:54;461.70;128.00
55331;DHT22;58851;42.984;20.336;2023-04-24T08:52:20;486.40;128.00
55331;DHT22;58851;42.984;20.336;2023-04-24T08:54:47;461.70;128.00
55331;DHT22;58851;42.984;20.336;2023-04-24T08:57:14;486.40;128.00
55331;DHT22;58851;42.984;20.336;2023-04-24T08:59:40;461.70;128.00
55331;DHT22;58851;42.984;20.336;2023-04-24T09:02:10;461.70;128.00
55331;DHT22;58851;42.984;20.336;2023-04-24T09:04:37;486.40;128.00
55331;DHT22;58851;42.984;20.336;2023-04-24T09:07:03;486.60;128.00
55331;DHT22;58851;42.984;20.336;2023-04-24T09:09:32;486.40;128.00
55331;DHT22;58851;42.984;20.336;2023-04-24T09:11:59;486.60;128.00
55331;DHT22;58851;42.984;20.336;2023-04-24T09:14:26;486.60;128.00
55331;DHT22;58851;42.984;20.336;2023-04-24T09:16:53;486.80;128.00
55331;DHT22;58851;42.984;20.336;2023-04-24T09:19:19;486.70;128.00
55331;DHT22;58851;42.984;20.336;2023-04-24T09:21:47;486.40;128.00
55331;DHT22;58851;42.984;20.336;2023-04-24T09:24:20;486.50;128.00
55331;DHT22;58851;42.984;20.336;2023-04-24T09:26:48;486.90;128.00
55331;DHT22;58851;42.984;20.336;2023-04-24T09:29:16;486.90;128.00
55331;DHT22;58851;42.984;20.336;2023-04-24T09:31:45;487.20;128.00
55331;DHT22;58851;42.984;20.336;2023-04-24T09:34:11;487.00;128.00
55331;DHT22;58851;42.984;20.336;2023-04-24T09:36:39;487.20;128.00
55331;DHT22;58851;42.984;20.336;2023-04-24T09:39:08;512.00;128.00
55331;DHT22;58851;42.984;20.336;2023-04-24T09:44:17;512.50;128.00
55331;DHT22;58851;42.984;20.336;2023-04-24T09:46:49;512.70;128.00
55331;DHT22;58851;42.984;20.336;2023-04-24T09:49:21;512.90;128.00
55331;DHT22;58851;42.984;20.336;2023-04-24T09:51:47;512.90;128.00
55331;DHT22;58851;42.984;20.336;2023-04-24T09:54:21;512.70;128.00
55331;DHT22;58851;42.984;20.336;2023-04-24T09:56:49;512.60;128.00
55331;DHT22;58851;42.984;20.336;2023-04-24T09:59:19;512.30;128.00
55331;DHT22;58851;42.984;20.336;2023-04-24T10:01:46;512.20;128.00
55331;DHT22;58851;42.984;20.336;2023-04-24T10:04:27;512.20;128.00
55331;DHT22;58851;42.984;20.336;2023-04-24T10:06:56;512.40;128.00
55331;DHT22;58851;42.984;20.336;2023-04-24T10:09:24;512.20;128.00
55331;DHT22;58851;42.984;20.336;2023-04-24T10:11:54;512.10;128.00
55331;DHT22;58851;42.984;20.336;2023-04-24T10:14:24;512.00;128.00
55331;DHT22;58851;42.984;20.336;2023-04-24T10:16:53;487.20;128.00
55331;DHT22;58851;42.984;20.336;2023-04-24T10:19:19;512.00;128.00
55331;DHT22;58851;42.984;20.336;2023-04-24T10:21:45;512.00;128.00
55331;DHT22;58851;42.984;20.336;2023-04-24T10:24:16;487.20;128.00
55331;DHT22;58851;42.984;20.336;2023-04-24T10:26:43;487.10;128.00
55331;DHT22;58851;42.984;20.336;2023-04-24T10:29:10;486.80;128.00
55331;DHT22;58851;42.984;20.336;2023-04-24T10:31:38;486.40;128.00
55331;DHT22;58851;42.984;20.336;2023-04-24T10:34:08;486.40;128.00
55331;DHT22;58851;42.984;20.336;2023-04-24T10:36:36;461.60;128.00
55331;DHT22;58851;42.984;20.336;2023-04-24T10:39:12;461.00;128.00
55331;DHT22;58851;42.984;20.336;2023-04-24T10:41:40;435.90;128.00
55331;DHT22;58851;42.984;20.336;2023-04-24T10:44:07;435.80;128.00
55331;DHT22;58851;42.984;20.336;2023-04-24T10:46:33;435.80;128.00
55331;DHT22;58851;42.984;20.336;2023-04-24T10:48:59;435.90;128.00
55331;DHT22;58851;42.984;20.336;2023-04-24T10:51:49;435.80;128.00
55331;DHT22;58851;42.984;20.336;2023-04-24T10:54:26;435.70;128.00
55331;DHT22;58851;42.984;20.336;2023-04-24T10:56:53;410.50;128.00
55331;DHT22;58851;42.984;20.336;2023-04-24T10:59:26;409.90;128.00
55331;DHT22;58851;42.984;20.336;2023-04-24T11:01:53;384.60;128.00
55331;DHT22;58851;42.984;20.336;2023-04-24T11:04:30;384.30;128.00
55331;DHT22;58851;42.984;20.336;2023-04-24T11:06:57;359.30;128.00
55331;DHT22;58851;42.984;20.336;2023-04-24T11:09:26;358.80;2278.40
55331;DHT22;58851;42.984;20.336;2023-04-24T11:12:06;358.90;460.80
55331;DHT22;58851;42.984;20.336;2023-04-24T11:17:32;384.30;128.00
55331;DHT22;58851;42.984;20.336;2023-04-24T11:20:07;384.60;128.00
55331;DHT22;58851;42.984;20.336;2023-04-24T11:22:37;384.90;230.40
55331;DHT22;58851;42.984;20.336;2023-04-24T11:25:03;384.90;128.00
55331;DHT22;58851;42.984;20.336;2023-04-24T11:27:41;409.80;128.00
55331;DHT22;58851;42.984;20.336;2023-04-24T11:30:08;410.00;128.00
55331;DHT22;58851;42.984;20.336;2023-04-24T11:32:37;410.10;128.00
55331;DHT22;58851;42.984;20.336;2023-04-24T11:35:21;410.20;128.00
55331;DHT22;58851;42.984;20.336;2023-04-24T11:37:54;410.30;128.00
55331;DHT22;58851;42.984;20.336;2023-04-24T11:40:21;435.20;128.00
55331;DHT22;58851;42.984;20.336;2023-04-24T11:42:52;410.50;128.00
55331;DHT22;58851;42.984;20.336;2023-04-24T11:45:25;435.20;537.60
55331;DHT22;58851;42.984;20.336;2023-04-24T11:47:51;435.20;614.40
55331;DHT22;58851;42.984;20.336;2023-04-24T11:50:19;435.20;281.60
55331;DHT22;58851;42.984;20.336;2023-04-24T11:52:47;410.50;563.20
55331;DHT22;58851;42.984;20.336;2023-04-24T11:57:54;410.50;204.80
55331;DHT22;58851;42.984;20.336;2023-04-24T12:00:30;410.50;307.20
55331;DHT22;58851;42.984;20.336;2023-04-24T12:03:11;435.30;640.00
55331;DHT22;58851;42.984;20.336;2023-04-24T12:05:38;410.50;460.80
55331;DHT22;58851;42.984;20.336;2023-04-24T12:08:05;410.30;281.60
55331;DHT22;58851;42.984;20.336;2023-04-24T12:10:32;410.20;128.00
55331;DHT22;58851;42.984;20.336;2023-04-24T12:12:58;410.10;128.00
55331;DHT22;58851;42.984;20.336;2023-04-24T12:15:25;409.90;281.60
55331;DHT22;58851;42.984;20.336;2023-04-24T12:17:52;409.80;384.00
55331;DHT22;58851;42.984;20.336;2023-04-24T12:20:27;409.80;128.00
55331;DHT22;58851;42.984;20.336;2023-04-24T12:22:54;409.90;588.80
55331;DHT22;58851;42.984;20.336;2023-04-24T12:25:22;409.80;128.00
55331;DHT22;58851;42.984;20.336;2023-04-24T12:28:08;409.60;128.00
55331;DHT22;58851;42.984;20.336;2023-04-24T12:30:48;409.70;128.00
55331;DHT22;58851;42.984;20.336;2023-04-24T12:33:18;409.70;128.00
55331;DHT22;58851;42.984;20.336;2023-04-24T12:35:45;409.90;128.00
55331;DHT22;58851;42.984;20.336;2023-04-24T12:38:16;410.20;128.00
55331;DHT22;58851;42.984;20.336;2023-04-24T12:40:43;410.30;128.00
55331;DHT22;58851;42.984;20.336;2023-04-24T12:43:14;410.40;128.00
55331;DHT22;58851;42.984;20.336;2023-04-24T12:45:41;410.50;128.00
55331;DHT22;58851;42.984;20.336;2023-04-24T12:48:06;435.20;128.00
55331;DHT22;58851;42.984;20.336;2023-04-24T12:50:32;410.50;384.00
55331;DHT22;58851;42.984;20.336;2023-04-24T12:52:58;410.50;358.40
55331;DHT22;58851;42.984;20.336;2023-04-24T12:55:24;410.50;128.00
55331;DHT22;58851;42.984;20.336;2023-04-24T12:57:50;410.50;128.00
55331;DHT22;58851;42.984;20.336;2023-04-24T13:00:16;410.50;128.00
55331;DHT22;58851;42.984;20.336;2023-04-24T13:02:42;435.30;128.00
55331;DHT22;58851;42.984;20.336;2023-04-24T13:05:08;435.30;128.00
55331;DHT22;58851;42.984;20.336;2023-04-24T13:07:34;435.20;128.00
55331;DHT22;58851;42.984;20.336;2023-04-24T13:10:00;435.30;128.00
55331;DHT22;58851;42.984;20.336;2023-04-24T13:12:26;435.30;128.00
55331;DHT22;58851;42.984;20.336;2023-04-24T13:14:52;435.40;128.00
55331;DHT22;58851;42.984;20.336;2023-04-24T13:17:18;435.30;128.00
55331;DHT22;58851;42.984;20.336;2023-04-24T13:19:44;410.50;128.00
55331;DHT22;58851;42.984;20.336;2023-04-24T13:22:12;435.20;128.00
55331;DHT22;58851;42.984;20.336;2023-04-24T13:24:38;435.20;128.00
55331;DHT22;58851;42.984;20.336;2023-04-24T13:27:06;435.30;128.00
55331;DHT22;58851;42.984;20.336;2023-04-24T13:29:32;435.50;128.00
55331;DHT22;58851;42.984;20.336;2023-04-24T13:31:58;435.70;128.00
55331;DHT22;58851;42.984;20.336;2023-04-24T13:34:24;435.60;128.00
55331;DHT22;58851;42.984;20.336;2023-04-24T13:36:55;435.70;128.00
55331;DHT22;58851;42.984;20.336;2023-04-24T13:39:22;435.60;128.00
55331;DHT22;58851;42.984;20.336;2023-04-24T13:41:49;435.60;128.00
55331;DHT22;58851;42.984;20.336;2023-04-24T13:44:16;435.60;128.00
55331;DHT22;58851;42.984;20.336;2023-04-24T13:46:42;435.70;128.00
55331;DHT22;58851;42.984;20.336;2023-04-24T13:49:10;435.30;128.00
55331;DHT22;58851;42.984;20.336;2023-04-24T13:51:36;435.20;128.00
55331;DHT22;58851;42.984;20.336;2023-04-24T13:54:02;435.40;128.00
55331;DHT22;58851;42.984;20.336;2023-04-24T13:56:28;435.40;128.00
55331;DHT22;58851;42.984;20.336;2023-04-24T13:58:53;435.50;128.00
55331;DHT22;58851;42.984;20.336;2023-04-24T14:01:20;435.50;128.00
55331;DHT22;58851;42.984;20.336;2023-04-24T14:03:50;435.40;128.00
55331;DHT22;58851;42.984;20.336;2023-04-24T14:06:16;435.40;128.00
55331;DHT22;58851;42.984;20.336;2023-04-24T14:08:41;435.50;128.00
55331;DHT22;58851;42.984;20.336;2023-04-24T14:11:07;435.40;128.00
55331;DHT22;58851;42.984;20.336;2023-04-24T14:13:33;435.40;128.00
55331;DHT22;58851;42.984;20.336;2023-04-24T14:15:59;435.30;128.00
55331;DHT22;58851;42.984;20.336;2023-04-24T14:18:25;435.20;128.00
55331;DHT22;58851;42.984;20.336;2023-04-24T14:20:52;410.50;128.00
55331;DHT22;58851;42.984;20.336;2023-04-24T14:23:18;410.40;128.00
55331;DHT22;58851;42.984;20.336;2023-04-24T14:25:44;410.30;128.00
55331;DHT22;58851;42.984;20.336;2023-04-24T14:28:10;410.20;128.00
55331;DHT22;58851;42.984;20.336;2023-04-24T14:30:35;410.10;128.00
55331;DHT22;58851;42.984;20.336;2023-04-24T14:33:03;410.00;128.00
55331;DHT22;58851;42.984;20.336;2023-04-24T14:35:29;409.90;128.00
55331;DHT22;58851;42.984;20.336;2023-04-24T14:37:56;409.80;128.00
55331;DHT22;58851;42.984;20.336;2023-04-24T14:40:22;409.80;128.00
55331;DHT22;58851;42.984;20.336;2023-04-24T14:42:48;410.00;128.00
55331;DHT22;58851;42.984;20.336;2023-04-24T14:45:14;410.00;128.00
55331;DHT22;58851;42.984;20.336;2023-04-24T14:47:40;410.20;128.00
55331;DHT22;58851;42.984;20.336;2023-04-24T14:50:07;410.30;128.00